Time;durP1;ratioP1;P1;durP2;ratioP2;P2;SDS_P1;SDS_P2;PMS_P1;PMS_P2;Temp;Humidity;BMP_temperature;BMP_pressure;BME280_temperature;BME280_humidity;BME280_pressure;Samples;Min_cycle;Max_cycle;Signal;HPM_P1;HPM_P2
2021/01/25 00:00:17;;;;;;;40.10;14.43;;;;;;;-0.15;100.00;99317.81;5007319;28;20113;-68
2021/01/25 00:02:43;;;;;;;40.80;15.30;;;;;;;-0.20;100.00;99304.03;5005072;28;20073;-68
2021/01/25 00:05:09;;;;;;;45.60;15.33;;;;;;;-0.14;100.00;99303.28;5005555;28;20316;-69
2021/01/25 00:07:35;;;;;;;59.20;15.67;;;;;;;-0.15;100.00;99306.69;4999655;28;20029;-69
2021/01/25 00:10:01;;;;;;;50.17;15.20;;;;;;;-0.13;100.00;99311.00;5009350;28;20327;-69
2021/01/25 00:12:27;;;;;;;60.27;15.30;;;;;;;-0.08;100.00;99318.84;5000655;28;20485;-69
2021/01/25 00:14:53;;;;;;;38.53;13.17;;;;;;;-0.06;100.00;99318.03;5010117;28;20030;-69
2021/01/25 00:17:18;;;;;;;59.47;16.70;;;;;;;-0.16;100.00;99316.09;5006632;28;20036;-69
2021/01/25 00:19:43;;;;;;;54.17;15.03;;;;;;;-0.15;100.00;99322.97;5001053;28;20069;-69
2021/01/25 00:22:09;;;;;;;53.30;15.60;;;;;;;-0.13;100.00;99323.84;5003125;28;20472;-70
2021/01/25 00:24:34;;;;;;;46.20;15.63;;;;;;;-0.15;100.00;99327.22;5006545;28;20083;-68
2021/01/25 00:27:00;;;;;;;52.30;14.90;;;;;;;-0.20;100.00;99322.00;5001770;28;20026;-69
2021/01/25 00:29:25;;;;;;;51.20;16.20;;;;;;;-0.22;100.00;99326.25;5006078;28;20405;-69
2021/01/25 00:31:51;;;;;;;44.20;14.23;;;;;;;-0.17;100.00;99319.50;5005535;28;20058;-69
2021/01/25 00:34:16;;;;;;;53.83;15.80;;;;;;;-0.19;100.00;99316.03;5003882;28;20041;-69
2021/01/25 00:36:41;;;;;;;51.97;16.10;;;;;;;-0.27;100.00;99317.56;5002700;28;20032;-68
2021/01/25 00:39:07;;;;;;;51.03;15.03;;;;;;;-0.40;100.00;99320.69;5007408;28;20105;-69
2021/01/25 00:41:32;;;;;;;48.57;14.80;;;;;;;-0.56;100.00;99313.47;5011393;28;20034;-69
2021/01/25 00:43:58;;;;;;;52.97;14.67;;;;;;;-0.47;100.00;99318.81;5009404;28;20058;-69
2021/01/25 00:46:24;;;;;;;57.87;16.20;;;;;;;-0.48;100.00;99317.09;5012809;28;20041;-69
2021/01/25 00:48:50;;;;;;;52.93;16.03;;;;;;;-0.55;100.00;99316.06;5008662;28;20037;-70
2021/01/25 00:51:15;;;;;;;53.27;15.70;;;;;;;-0.60;100.00;99313.41;5007591;28;20456;-69
2021/01/25 00:53:41;;;;;;;56.93;16.47;;;;;;;-0.65;100.00;99312.41;5006361;28;20292;-69
2021/01/25 00:56:06;;;;;;;48.97;16.53;;;;;;;-0.56;100.00;99321.16;5008735;28;20028;-69
2021/01/25 00:58:32;;;;;;;57.87;17.13;;;;;;;-0.67;100.00;99324.34;5004595;28;20026;-69
2021/01/25 01:00:57;;;;;;;62.77;16.70;;;;;;;-0.71;100.00;99314.84;5012324;28;20104;-70
2021/01/25 01:03:23;;;;;;;59.43;17.70;;;;;;;-0.74;100.00;99325.03;5006828;28;20091;-68
2021/01/25 01:05:48;;;;;;;60.90;17.30;;;;;;;-0.74;100.00;99325.03;5007710;28;20049;-70
2021/01/25 01:08:15;;;;;;;65.83;16.90;;;;;;;-0.82;100.00;99321.41;5009466;28;20053;-70
2021/01/25 01:10:41;;;;;;;55.20;17.00;;;;;;;-0.90;100.00;99325.47;5010164;28;20495;-69
2021/01/25 01:13:06;;;;;;;61.83;16.63;;;;;;;-1.01;100.00;99324.34;5008479;28;20288;-69
2021/01/25 01:15:32;;;;;;;71.07;17.37;;;;;;;-0.95;100.00;99327.94;5011771;28;20489;-69
2021/01/25 01:17:57;;;;;;;70.13;16.93;;;;;;;-1.03;100.00;99331.13;5010269;28;20055;-69
2021/01/25 01:20:23;;;;;;;67.10;17.87;;;;;;;-1.23;100.00;99334.03;5011479;28;20117;-70
2021/01/25 01:22:48;;;;;;;53.93;16.87;;;;;;;-1.46;100.00;99332.56;5007689;28;20396;-69
2021/01/25 01:25:14;;;;;;;58.23;16.97;;;;;;;-1.54;100.00;99331.50;5006453;28;20025;-69
2021/01/25 01:27:39;;;;;;;69.03;17.87;;;;;;;-1.52;100.00;99337.53;5007504;28;20038;-69
2021/01/25 01:30:07;;;;;;;67.30;17.63;;;;;;;-1.51;100.00;99336.72;5008982;28;20366;-69
2021/01/25 01:32:34;;;;;;;69.10;18.73;;;;;;;-1.68;100.00;99330.28;5007638;28;20022;-68
2021/01/25 01:34:59;;;;;;;78.17;18.63;;;;;;;-1.42;100.00;99334.41;5009173;28;20284;-69
2021/01/25 01:37:24;;;;;;;72.23;18.80;;;;;;;-1.25;100.00;99333.16;5008463;28;20277;-69
2021/01/25 01:39:50;;;;;;;63.57;18.23;;;;;;;-1.44;100.00;99338.63;5007861;28;20481;-69
2021/01/25 01:42:19;;;;;;;49.97;16.37;;;;;;;-1.70;100.00;99337.88;5009557;28;20110;-69
2021/01/25 01:44:44;;;;;;;62.30;17.83;;;;;;;-1.96;100.00;99338.84;5005617;28;20109;-69
2021/01/25 01:47:19;;;;;;;69.90;16.70;;;;;;;-2.11;100.00;99336.72;5010291;28;20364;-69
2021/01/25 01:49:45;;;;;;;61.93;16.63;;;;;;;-2.23;100.00;99337.22;5007249;28;20038;-69
2021/01/25 01:52:10;;;;;;;76.53;17.47;;;;;;;-2.25;100.00;99338.00;5009436;28;20283;-69
2021/01/25 01:54:36;;;;;;;76.53;17.13;;;;;;;-2.26;100.00;99332.00;5006385;28;20029;-69
2021/01/25 01:57:02;;;;;;;83.13;17.30;;;;;;;-2.28;100.00;99332.78;5002393;28;20117;-68
2021/01/25 01:59:28;;;;;;;83.20;18.30;;;;;;;-2.13;100.00;99343.47;5007296;28;20088;-69
2021/01/25 02:01:53;;;;;;;76.37;18.73;;;;;;;-2.18;100.00;99339.91;5005989;28;20541;-69
2021/01/25 02:04:18;;;;;;;73.60;19.27;;;;;;;-2.32;100.00;99342.03;5007473;28;20505;-69
2021/01/25 02:06:45;;;;;;;76.47;17.50;;;;;;;-2.19;100.00;99338.16;5006269;28;20037;-69
2021/01/25 02:09:12;;;;;;;83.40;18.53;;;;;;;-2.10;100.00;99343.56;5007754;28;20029;-69
2021/01/25 02:11:39;;;;;;;88.37;19.13;;;;;;;-2.08;100.00;99353.03;5009623;28;20276;-68
2021/01/25 02:14:06;;;;;;;85.80;18.93;;;;;;;-2.18;100.00;99351.03;5004580;28;20275;-69
2021/01/25 02:16:32;;;;;;;65.37;17.67;;;;;;;-2.35;100.00;99341.97;5009532;28;20347;-70
2021/01/25 02:18:58;;;;;;;78.97;18.63;;;;;;;-2.34;100.00;99347.94;5001114;28;20313;-69
2021/01/25 02:21:30;;;;;;;59.70;16.37;;;;;;;-2.08;100.00;99352.16;5007619;28;20307;-69
2021/01/25 02:24:34;;;;;;;65.70;17.58;;;;;;;-2.01;100.00;99356.66;5011917;28;21232;-68
2021/01/25 02:27:17;;;;;;;91.43;19.37;;;;;;;-1.79;100.00;99348.75;5010398;28;20072;-68
2021/01/25 02:29:44;;;;;;;88.87;18.13;;;;;;;-1.59;100.00;99353.56;5007961;28;20293;-69
2021/01/25 02:32:11;;;;;;;94.73;20.80;;;;;;;-1.57;100.00;99351.94;5008134;28;20284;-69
2021/01/25 02:34:38;;;;;;;76.50;18.33;;;;;;;-1.86;100.00;99349.41;5007841;28;20265;-69
2021/01/25 02:37:04;;;;;;;66.63;18.07;;;;;;;-2.09;100.00;99350.41;5006470;28;20280;-69
2021/01/25 02:39:30;;;;;;;69.83;19.03;;;;;;;-2.32;100.00;99351.41;5009495;28;20289;-68
2021/01/25 02:41:56;;;;;;;96.97;20.57;;;;;;;-2.43;100.00;99363.88;5006247;28;20281;-68
2021/01/25 02:44:22;;;;;;;77.97;19.07;;;;;;;-2.58;100.00;99355.72;5005352;28;20105;-69
2021/01/25 02:46:48;;;;;;;76.90;18.20;;;;;;;-2.71;100.00;99357.88;5010523;28;20347;-69
2021/01/25 02:49:14;;;;;;;64.70;18.70;;;;;;;-2.88;100.00;99366.72;5009466;28;20034;-68
2021/01/25 02:51:39;;;;;;;72.67;19.03;;;;;;;-2.83;100.00;99366.84;5009135;28;20287;-68
2021/01/25 02:54:05;;;;;;;82.20;18.10;;;;;;;-2.83;100.00;99356.63;5001688;28;20045;-69
2021/01/25 02:56:30;;;;;;;66.60;17.63;;;;;;;-2.83;100.00;99362.59;5005415;28;20038;-69
2021/01/25 02:58:56;;;;;;;82.97;17.83;;;;;;;-2.71;100.00;99363.00;5005455;28;20470;-68
2021/01/25 03:01:22;;;;;;;87.87;18.40;;;;;;;-2.59;100.00;99354.00;5006548;28;20022;-70
2021/01/25 03:03:51;;;;;;;84.57;19.37;;;;;;;-2.47;100.00;99359.50;5004795;28;20096;-69
2021/01/25 03:06:16;;;;;;;103.67;20.73;;;;;;;-2.33;100.00;99357.34;5007743;28;20028;-68
2021/01/25 03:08:44;;;;;;;109.30;22.03;;;;;;;-2.24;100.00;99355.09;5008345;28;20285;-68
2021/01/25 03:11:10;;;;;;;92.47;22.53;;;;;;;-2.44;100.00;99359.56;5004591;28;20041;-68
2021/01/25 03:13:35;;;;;;;104.80;22.27;;;;;;;-2.43;100.00;99362.19;5005346;28;20281;-69
2021/01/25 03:16:01;;;;;;;110.17;23.57;;;;;;;-2.38;100.00;99368.34;5010241;28;20367;-69
2021/01/25 03:18:27;;;;;;;128.83;24.00;;;;;;;-2.33;100.00;99354.78;5005056;28;20026;-68
2021/01/25 03:20:54;;;;;;;115.20;23.23;;;;;;;-2.44;100.00;99362.13;4998240;28;20277;-69
2021/01/25 03:23:19;;;;;;;129.37;24.27;;;;;;;-2.53;100.00;99370.41;5008521;28;20034;-68
2021/01/25 03:25:46;;;;;;;124.33;23.90;;;;;;;-2.65;100.00;99359.78;5001762;28;20839;-69
2021/01/25 03:28:12;;;;;;;127.33;24.00;;;;;;;-2.59;100.00;99366.78;5007956;28;20032;-69
2021/01/25 03:30:38;;;;;;;125.17;23.67;;;;;;;-2.58;100.00;99368.50;5007949;28;20293;-69
2021/01/25 03:33:03;;;;;;;100.77;23.53;;;;;;;-2.73;100.00;99369.75;5010204;28;20661;-68
2021/01/25 03:35:29;;;;;;;112.97;23.43;;;;;;;-2.88;100.00;99368.41;5005756;28;20096;-69
2021/01/25 03:37:55;;;;;;;103.57;23.40;;;;;;;-2.87;100.00;99370.13;5005822;28;20469;-69
2021/01/25 03:40:20;;;;;;;109.50;22.80;;;;;;;-2.71;100.00;99367.25;5004000;28;20026;-70
2021/01/25 03:42:45;;;;;;;113.23;23.10;;;;;;;-2.71;100.00;99372.38;5005191;28;20034;-68
2021/01/25 03:45:11;;;;;;;137.07;26.23;;;;;;;-2.74;100.00;99377.38;5002170;28;20025;-68
2021/01/25 03:47:37;;;;;;;126.40;25.20;;;;;;;-2.68;100.00;99372.47;5005694;28;20037;-69
2021/01/25 03:50:04;;;;;;;150.23;25.37;;;;;;;-2.61;100.00;99369.28;5002799;28;20026;-69
2021/01/25 03:52:29;;;;;;;138.37;27.10;;;;;;;-2.67;100.00;99369.06;5009499;28;20473;-69
2021/01/25 03:54:54;;;;;;;124.50;25.33;;;;;;;-2.77;100.00;99377.31;5006843;28;20272;-70
2021/01/25 03:57:20;;;;;;;134.63;26.27;;;;;;;-2.87;100.00;99377.81;5007578;28;20033;-69
2021/01/25 03:59:45;;;;;;;136.13;26.87;;;;;;;-2.92;100.00;99372.53;5005803;28;20028;-69
2021/01/25 04:02:13;;;;;;;116.93;24.50;;;;;;;-2.93;100.00;99381.00;5004952;28;20026;-69
2021/01/25 04:04:41;;;;;;;110.00;23.33;;;;;;;-2.99;100.00;99370.59;5003154;28;20037;-69
2021/01/25 04:07:08;;;;;;;123.97;23.50;;;;;;;-2.90;100.00;99370.03;5005833;28;20277;-69
2021/01/25 04:09:33;;;;;;;141.07;25.50;;;;;;;-3.02;100.00;99381.59;5007152;28;20832;-68
2021/01/25 04:11:58;;;;;;;124.37;25.47;;;;;;;-2.92;100.00;99371.66;5008474;28;20401;-69
2021/01/25 04:14:24;;;;;;;134.47;24.60;;;;;;;-2.90;100.00;99382.81;5006266;28;20026;-68
2021/01/25 04:16:49;;;;;;;157.90;28.03;;;;;;;-2.81;100.00;99375.44;5009038;28;20026;-68
2021/01/25 04:19:15;;;;;;;134.77;25.07;;;;;;;-2.86;100.00;99374.44;5006510;28;20029;-68
2021/01/25 04:21:40;;;;;;;117.10;24.30;;;;;;;-2.90;100.00;99376.03;5004074;28;20440;-69
2021/01/25 04:24:06;;;;;;;124.13;23.43;;;;;;;-3.03;100.00;99379.88;5005894;28;20029;-68
2021/01/25 04:26:32;;;;;;;107.63;24.13;;;;;;;-3.11;100.00;99385.53;5005564;28;20068;-69
2021/01/25 04:28:57;;;;;;;125.07;25.63;;;;;;;-3.01;100.00;99383.34;5000664;28;20289;-68
2021/01/25 04:31:23;;;;;;;109.83;23.93;;;;;;;-3.08;100.00;99390.72;5002552;28;20026;-70
2021/01/25 04:33:48;;;;;;;142.73;25.87;;;;;;;-3.05;100.00;99391.69;5003189;28;20551;-69
2021/01/25 04:36:13;;;;;;;133.27;27.43;;;;;;;-2.91;100.00;99399.81;5007259;28;20037;-69
2021/01/25 04:38:39;;;;;;;135.73;25.63;;;;;;;-2.82;100.00;99394.16;5007895;28;20041;-69
2021/01/25 04:41:06;;;;;;;131.27;26.53;;;;;;;-2.74;100.00;99392.75;5003712;28;20034;-69
2021/01/25 04:43:31;;;;;;;144.93;26.57;;;;;;;-2.89;100.00;99397.34;5006697;28;20057;-69
2021/01/25 04:45:57;;;;;;;168.37;28.83;;;;;;;-2.83;100.00;99403.53;5004669;28;20768;-69
2021/01/25 04:48:26;;;;;;;190.87;29.17;;;;;;;-2.76;100.00;99402.06;5005769;28;20030;-69
2021/01/25 04:50:54;;;;;;;153.47;25.77;;;;;;;-2.85;100.00;99402.59;5009710;28;20268;-68
2021/01/25 04:53:20;;;;;;;137.83;26.57;;;;;;;-3.07;100.00;99407.81;4997098;28;20368;-69
2021/01/25 04:55:46;;;;;;;140.10;27.67;;;;;;;-3.02;100.00;99401.19;5000464;28;20371;-69
2021/01/25 04:58:12;;;;;;;143.60;25.00;;;;;;;-2.96;100.00;99411.59;5005356;28;20038;-68
2021/01/25 05:00:37;;;;;;;160.97;27.50;;;;;;;-3.01;100.00;99406.34;5005887;28;20346;-69
2021/01/25 05:03:03;;;;;;;134.73;27.27;;;;;;;-2.96;100.00;99412.47;5004456;28;20292;-68
2021/01/25 05:05:28;;;;;;;135.10;26.27;;;;;;;-3.08;100.00;99414.59;5006375;28;20501;-69
2021/01/25 05:07:54;;;;;;;125.37;25.17;;;;;;;-3.15;100.00;99407.56;5004247;28;20045;-68
2021/01/25 05:10:20;;;;;;;134.53;24.37;;;;;;;-3.20;100.00;99421.84;5007936;28;20034;-68
2021/01/25 05:12:47;;;;;;;111.53;23.47;;;;;;;-3.24;100.00;99417.47;5006781;28;20038;-68
2021/01/25 05:15:47;;;;;;;143.67;25.40;;;;;;;-3.02;100.00;99422.50;5004525;28;20287;-68
2021/01/25 05:18:13;;;;;;;117.80;25.30;;;;;;;-3.11;100.00;99416.19;4998205;28;20292;-68
2021/01/25 05:20:38;;;;;;;128.00;25.90;;;;;;;-3.08;100.00;99419.72;5010563;28;20284;-69
2021/01/25 05:23:14;;;;;;;140.37;26.43;;;;;;;-3.15;100.00;99415.22;5004969;28;20363;-69
2021/01/25 05:25:41;;;;;;;116.20;25.87;;;;;;;-3.17;100.00;99419.38;5006088;28;20063;-69
2021/01/25 05:28:14;;;;;;;137.07;25.10;;;;;;;-2.96;100.00;99422.69;5005557;28;20298;-68
2021/01/25 05:30:40;;;;;;;125.20;25.50;;;;;;;-3.01;100.00;99419.13;5008228;28;20292;-69
2021/01/25 05:33:05;;;;;;;112.80;24.30;;;;;;;-3.12;100.00;99417.88;5005052;28;20329;-69
2021/01/25 05:35:32;;;;;;;129.43;24.50;;;;;;;-3.26;100.00;99419.09;5003405;28;20100;-69
2021/01/25 05:38:00;;;;;;;113.63;22.83;;;;;;;-3.16;100.00;99416.00;5016355;28;20057;-68
2021/01/25 05:40:27;;;;;;;122.17;23.80;;;;;;;-3.22;100.00;99418.38;5007191;28;20779;-69
2021/01/25 05:42:55;;;;;;;123.60;22.57;;;;;;;-3.19;100.00;99418.47;5002500;28;20775;-69
2021/01/25 05:45:21;;;;;;;121.60;23.17;;;;;;;-3.21;100.00;99412.44;5004957;28;20291;-69
2021/01/25 05:47:52;;;;;;;115.97;22.73;;;;;;;-3.20;100.00;99415.88;5014827;28;20776;-69
2021/01/25 05:50:28;;;;;;;129.13;24.87;;;;;;;-3.23;100.00;99420.88;5011213;28;20759;-68
2021/01/25 05:52:55;;;;;;;123.37;26.40;;;;;;;-3.29;100.00;99421.50;5006449;28;20659;-69
2021/01/25 05:55:21;;;;;;;118.20;22.60;;;;;;;-3.30;100.00;99424.88;5010524;28;20285;-68
2021/01/25 05:57:47;;;;;;;113.87;22.83;;;;;;;-3.31;100.00;99420.59;5013582;28;20288;-68
2021/01/25 06:00:13;;;;;;;109.80;23.40;;;;;;;-3.30;100.00;99419.78;5011605;28;20072;-69
2021/01/25 06:02:46;;;;;;;119.20;24.77;;;;;;;-3.35;100.00;99422.19;5012476;28;20033;-68
2021/01/25 06:05:20;;;;;;;130.67;26.53;;;;;;;-3.30;100.00;99420.66;5003799;28;20317;-68
2021/01/25 06:07:47;;;;;;;144.10;27.03;;;;;;;-3.23;100.00;99426.00;4996436;28;20292;-68
2021/01/25 06:10:17;;;;;;;118.97;24.17;;;;;;;-3.38;100.00;99426.31;5012899;28;20297;-68
2021/01/25 06:12:46;;;;;;;122.37;24.37;;;;;;;-3.48;100.00;99439.56;5005127;28;20284;-68
2021/01/25 06:15:18;;;;;;;129.13;26.37;;;;;;;-3.48;100.00;99429.34;4995044;28;20765;-68
2021/01/25 06:17:44;;;;;;;;;;;;;;;-3.35;100.00;99436.63;5014675;28;20771;-68
2021/01/25 06:20:10;;;;;;;126.47;25.20;;;;;;;-3.27;100.00;99441.22;5018997;28;19925;-68
2021/01/25 06:22:37;;;;;;;114.93;25.67;;;;;;;-3.24;100.00;99437.91;5008966;28;20695;-68
2021/01/25 06:25:06;;;;;;;133.00;26.47;;;;;;;-3.30;100.00;99440.22;5006273;28;20123;-69
2021/01/25 06:27:32;;;;;;;123.20;25.30;;;;;;;-3.37;100.00;99448.50;5004901;28;20292;-70
2021/01/25 06:30:01;;;;;;;147.23;26.07;;;;;;;-3.45;100.00;99455.88;5006799;28;20285;-69
2021/01/25 06:32:40;;;;;;;134.97;28.03;;;;;;;-3.57;100.00;99450.31;5012640;28;20521;-69
2021/01/25 06:35:07;;;;;;;128.77;24.53;;;;;;;-3.75;100.00;99450.50;5013268;28;20332;-69
2021/01/25 06:37:34;;;;;;;136.07;25.40;;;;;;;-3.70;100.00;99459.19;4998000;28;20269;-69
2021/01/25 06:40:08;;;;;;;126.67;24.90;;;;;;;-3.61;100.00;99463.78;5023703;28;20356;-69
2021/01/25 06:42:36;;;;;;;123.20;25.67;;;;;;;-3.60;100.00;99471.50;4995098;28;20331;-70
2021/01/25 06:45:03;;;;;;;114.77;24.43;;;;;;;-3.49;100.00;99468.50;5013967;28;20295;-69
2021/01/25 06:47:30;;;;;;;134.40;26.40;;;;;;;-3.59;100.00;99478.34;5024703;28;20296;-69
2021/01/25 06:49:58;;;;;;;123.70;24.30;;;;;;;-3.48;100.00;99485.56;5030698;28;20606;-69
2021/01/25 06:52:27;;;;;;;121.70;23.90;;;;;;;-3.50;100.00;99499.97;5029754;28;20309;-70
2021/01/25 06:54:58;;;;;;;133.37;23.77;;;;;;;-3.59;100.00;99493.69;5023968;28;20753;-69
2021/01/25 06:57:26;;;;;;;166.20;27.63;;;;;;;-3.58;100.00;99499.66;5026076;28;20290;-69
2021/01/25 06:59:52;;;;;;;134.40;25.10;;;;;;;-3.59;100.00;99503.91;4999966;28;20702;-69
2021/01/25 07:02:20;;;;;;;131.23;27.37;;;;;;;-3.58;100.00;99500.53;5030738;28;20274;-69
2021/01/25 07:04:46;;;;;;;126.57;25.17;;;;;;;-3.69;100.00;99501.78;5027612;28;20038;-69
2021/01/25 07:07:29;;;;;;;131.10;25.47;;;;;;;-3.75;100.00;99510.94;5029882;28;20272;-69
2021/01/25 07:09:57;;;;;;;119.83;24.40;;;;;;;-3.80;100.00;99513.28;4994082;28;20637;-69
2021/01/25 07:12:24;;;;;;;136.60;27.57;;;;;;;-3.75;100.00;99526.25;5025663;28;20032;-68
2021/01/25 07:14:52;;;;;;;132.93;26.00;;;;;;;-3.62;100.00;99519.13;5029872;28;20287;-70
2021/01/25 07:17:17;;;;;;;119.87;24.33;;;;;;;-3.51;100.00;99532.31;5029783;28;20288;-69
2021/01/25 07:19:44;;;;;;;143.47;26.50;;;;;;;-3.48;100.00;99531.53;5028984;28;20306;-68
2021/01/25 07:22:10;;;;;;;122.67;25.27;;;;;;;-3.60;100.00;99525.16;5030270;28;20029;-69
2021/01/25 07:24:37;;;;;;;120.70;26.63;;;;;;;-3.73;100.00;99543.38;5029523;28;20821;-69
2021/01/25 07:27:03;;;;;;;130.73;24.50;;;;;;;-3.60;100.00;99537.06;5030809;28;20033;-69
2021/01/25 07:29:29;;;;;;;121.57;23.37;;;;;;;-3.49;100.00;99534.91;5029252;28;20291;-69
2021/01/25 07:31:56;;;;;;;120.07;21.90;;;;;;;-3.40;100.00;99538.66;5026782;28;20375;-69
2021/01/25 07:34:23;;;;;;;125.23;23.53;;;;;;;-3.31;100.00;99536.47;5028729;28;20024;-69
2021/01/25 07:36:49;;;;;;;129.73;25.37;;;;;;;-3.26;100.00;99540.06;5030819;28;20304;-68
2021/01/25 07:39:17;;;;;;;117.23;25.07;;;;;;;-3.38;100.00;99551.53;5028181;28;20295;-69
2021/01/25 07:41:44;;;;;;;126.00;25.63;;;;;;;-3.46;100.00;99552.91;5028675;28;20399;-70
2021/01/25 07:44:12;;;;;;;136.70;24.97;;;;;;;-3.47;100.00;99548.59;5028146;28;20304;-69
2021/01/25 07:46:39;;;;;;;134.60;26.60;;;;;;;-3.28;100.00;99561.25;5028783;28;20338;-69
2021/01/25 07:49:04;;;;;;;145.73;27.57;;;;;;;-3.15;100.00;99558.38;5030191;28;20279;-68
2021/01/25 07:51:35;;;;;;;122.13;24.73;;;;;;;-3.09;100.00;99558.59;5025805;28;20284;-69
2021/01/25 07:54:02;;;;;;;138.67;27.23;;;;;;;-3.10;100.00;99567.06;5027507;28;20067;-69
2021/01/25 07:56:28;;;;;;;95.77;24.00;;;;;;;-3.13;100.00;99574.63;5030041;28;20755;-69
2021/01/25 07:59:05;;;;;;;98.20;23.80;;;;;;;-3.41;100.00;99584.59;5029271;28;20394;-68
2021/01/25 08:01:36;;;;;;;120.33;25.87;;;;;;;-3.55;100.00;99591.72;5027091;28;20363;-68
2021/01/25 08:04:04;;;;;;;115.80;26.40;;;;;;;-3.53;100.00;99593.53;5021166;28;20292;-69
2021/01/25 08:06:33;;;;;;;120.07;26.80;;;;;;;-3.47;100.00;99599.69;5027376;28;20334;-69
2021/01/25 08:09:01;;;;;;;115.50;26.93;;;;;;;-3.41;100.00;99602.47;5016938;28;20342;-69
2021/01/25 08:11:27;;;;;;;132.97;28.33;;;;;;;-3.42;100.00;99593.94;5025591;28;20763;-69
2021/01/25 08:14:01;;;;;;;137.07;26.20;;;;;;;-3.32;100.00;99595.19;5027573;28;20284;-69
2021/01/25 08:16:34;;;;;;;129.60;28.23;;;;;;;-3.16;100.00;99596.63;5030286;28;20100;-70
2021/01/25 08:19:00;;;;;;;126.87;27.03;;;;;;;-3.10;100.00;99592.63;5030084;28;20635;-69
2021/01/25 08:21:31;;;;;;;107.63;24.73;;;;;;;-3.09;100.00;99596.94;5023993;28;20287;-69
2021/01/25 08:24:01;;;;;;;98.87;25.87;;;;;;;-2.94;100.00;99604.28;5027516;28;20030;-69
2021/01/25 08:26:28;;;;;;;91.53;22.70;;;;;;;-2.81;100.00;99598.81;5022285;28;20280;-69
2021/01/25 08:29:02;;;;;;;106.50;23.07;;;;;;;-2.43;100.00;99604.44;5021535;28;20792;-69
2021/01/25 08:31:34;;;;;;;77.10;22.33;;;;;;;-1.93;100.00;99610.44;5003302;28;20780;-70
2021/01/25 08:34:14;;;;;;;82.55;21.85;;;;;;;-1.58;100.00;99617.56;5016519;28;20362;-70
2021/01/25 08:36:40;;;;;;;77.03;22.40;;;;;;;-0.85;100.00;99618.94;5027646;28;20445;-70
2021/01/25 08:39:17;;;;;;;87.53;23.10;;;;;;;-0.25;100.00;99613.78;5029097;28;20337;-71
2021/01/25 08:41:55;;;;;;;63.57;18.77;;;;;;;-0.15;100.00;99620.91;5027968;28;20037;-69
2021/01/25 08:44:23;;;;;;;44.10;16.60;;;;;;;0.13;100.00;99621.66;5018345;28;20702;-71
2021/01/25 08:46:49;;;;;;;36.67;13.87;;;;;;;0.70;100.00;99611.03;4990672;28;20277;-71
2021/01/25 08:49:19;;;;;;;37.27;13.07;;;;;;;1.05;100.00;99622.13;5010069;28;20283;-72
2021/01/25 08:52:08;;;;;;;30.07;12.70;;;;;;;1.47;100.00;99619.59;5028316;28;20295;-71
2021/01/25 08:54:35;;;;;;;31.37;12.97;;;;;;;1.54;100.00;99625.72;5025247;28;20060;-71
2021/01/25 08:57:00;;;;;;;29.20;13.10;;;;;;;1.41;100.00;99625.47;5029642;28;20041;-71
2021/01/25 08:59:38;;;;;;;29.33;13.03;;;;;;;1.31;100.00;99630.41;5028399;28;20453;-71
2021/01/25 09:02:33;;;;;;;28.70;12.17;;;;;;;1.39;100.00;99636.59;5032396;28;20459;-71
2021/01/25 09:04:59;;;;;;;33.83;12.83;;;;;;;1.25;100.00;99643.16;5023594;28;20059;-72
2021/01/25 09:07:24;;;;;;;29.47;13.13;;;;;;;1.44;100.00;99645.28;5033568;28;20033;-72
2021/01/25 09:09:50;;;;;;;30.93;12.90;;;;;;;1.09;100.00;99645.41;5032278;28;20025;-71
2021/01/25 09:12:17;;;;;;;34.60;14.00;;;;;;;0.35;100.00;99644.47;5033193;28;20377;-71
2021/01/25 09:14:43;;;;;;;32.33;14.73;;;;;;;0.32;100.00;99643.53;5030773;28;20440;-70
2021/01/25 09:17:10;;;;;;;38.40;15.13;;;;;;;-0.12;100.00;99651.84;5031272;28;20049;-69
2021/01/25 09:19:36;;;;;;;36.37;14.87;;;;;;;-0.23;100.00;99648.13;5029576;28;20404;-69
2021/01/25 09:22:03;;;;;;;40.73;17.53;;;;;;;-0.17;100.00;99661.13;5033024;28;20446;-68
2021/01/25 09:24:29;;;;;;;42.43;17.60;;;;;;;-0.36;100.00;99656.31;5030976;28;20529;-70
2021/01/25 09:26:54;;;;;;;41.77;17.30;;;;;;;-0.41;100.00;99663.88;5033212;28;20260;-69
2021/01/25 09:29:19;;;;;;;43.00;16.67;;;;;;;-0.34;100.00;99664.94;5030638;28;20033;-70
2021/01/25 09:31:45;;;;;;;43.93;17.40;;;;;;;-0.23;100.00;99668.66;5030218;28;20083;-70
2021/01/25 09:34:11;;;;;;;42.80;17.63;;;;;;;-0.06;100.00;99677.69;5003649;28;20043;-68
2021/01/25 09:36:37;;;;;;;39.03;16.27;;;;;;;-0.11;100.00;99674.16;5013169;28;20297;-69
2021/01/25 09:39:03;;;;;;;44.70;17.07;;;;;;;-0.04;100.00;99676.03;5006439;28;20270;-69
2021/01/25 09:41:31;;;;;;;44.93;17.60;;;;;;;0.28;100.00;99679.47;5005429;28;20398;-70
2021/01/25 09:43:56;;;;;;;46.17;18.17;;;;;;;0.45;100.00;99677.31;5012587;28;20285;-69
2021/01/25 09:46:22;;;;;;;49.47;18.00;;;;;;;0.36;100.00;99676.22;5022415;28;20652;-69
2021/01/25 09:48:47;;;;;;;43.57;17.43;;;;;;;0.21;100.00;99692.09;5025601;28;20025;-69
2021/01/25 09:51:12;;;;;;;43.10;17.20;;;;;;;0.09;100.00;99692.66;5030903;28;20022;-69
2021/01/25 09:53:38;;;;;;;45.07;18.03;;;;;;;0.13;100.00;99701.34;5031024;28;20040;-69
2021/01/25 09:56:03;;;;;;;47.07;17.57;;;;;;;0.14;100.00;99697.94;5030696;28;20030;-69
2021/01/25 09:58:29;;;;;;;45.93;19.43;;;;;;;0.27;100.00;99700.00;5032445;28;20374;-69
2021/01/25 10:00:55;;;;;;;46.07;18.40;;;;;;;0.31;100.00;99706.09;5020886;28;20025;-69
2021/01/25 10:03:20;;;;;;;43.47;17.00;;;;;;;0.21;100.00;99712.66;5030734;28;20306;-69
2021/01/25 10:05:46;;;;;;;39.07;16.43;;;;;;;0.17;100.00;99710.88;5028136;28;20511;-70
2021/01/25 10:08:12;;;;;;;41.20;16.67;;;;;;;0.14;100.00;99715.94;5032536;28;20036;-69
2021/01/25 10:10:37;;;;;;;41.63;18.20;;;;;;;0.06;100.00;99723.41;5031097;28;20284;-69
2021/01/25 10:13:05;;;;;;;44.07;17.23;;;;;;;0.06;100.00;99718.28;5032313;28;20028;-69
2021/01/25 10:15:30;;;;;;;44.13;18.23;;;;;;;0.14;100.00;99721.06;5025386;28;20025;-69
2021/01/25 10:17:56;;;;;;;46.77;18.30;;;;;;;0.19;100.00;99734.91;5030627;28;20354;-69
2021/01/25 10:20:22;;;;;;;38.20;16.17;;;;;;;0.20;100.00;99726.34;5028034;28;20113;-69
2021/01/25 10:22:47;;;;;;;47.23;18.70;;;;;;;0.23;100.00;99729.00;5031987;28;20102;-70
2021/01/25 10:25:14;;;;;;;41.30;17.07;;;;;;;0.16;100.00;99729.69;5026752;28;20731;-68
2021/01/25 10:27:39;;;;;;;46.50;18.43;;;;;;;0.22;100.00;99737.53;5032164;28;20037;-69
2021/01/25 10:30:08;;;;;;;45.33;18.57;;;;;;;0.22;100.00;99730.69;5022548;28;20292;-69
2021/01/25 10:32:34;;;;;;;48.40;18.70;;;;;;;0.36;100.00;99741.34;5029272;28;20423;-69
2021/01/25 10:34:59;;;;;;;43.93;17.63;;;;;;;0.32;100.00;99736.09;5028260;28;20288;-70
2021/01/25 10:37:26;;;;;;;49.13;19.23;;;;;;;0.33;100.00;99743.84;5030445;28;20403;-69
2021/01/25 10:39:51;;;;;;;49.77;18.93;;;;;;;0.28;100.00;99745.44;5029600;28;20088;-70
2021/01/25 10:42:17;;;;;;;47.27;18.67;;;;;;;0.33;100.00;99743.84;5031316;28;20264;-69
2021/01/25 10:44:42;;;;;;;51.73;18.60;;;;;;;0.42;100.00;99759.53;5023329;28;20026;-69
2021/01/25 10:47:07;;;;;;;42.87;17.43;;;;;;;0.53;100.00;99747.81;5019739;28;20030;-69
2021/01/25 10:49:33;;;;;;;44.80;17.13;;;;;;;0.70;100.00;99755.09;5028007;28;20025;-68
2021/01/25 10:51:59;;;;;;;49.30;19.40;;;;;;;0.98;100.00;99760.13;5025259;28;20064;-68
2021/01/25 10:54:25;;;;;;;49.17;19.87;;;;;;;1.31;100.00;99756.59;5031289;28;20021;-68
2021/01/25 10:56:51;;;;;;;42.37;16.93;;;;;;;1.33;100.00;99762.63;5031441;28;20392;-69
2021/01/25 10:59:17;;;;;;;41.07;16.20;;;;;;;1.50;100.00;99753.59;5030236;28;20252;-69
2021/01/25 11:01:42;;;;;;;44.43;17.97;;;;;;;1.51;100.00;99765.66;5028086;28;20758;-69
2021/01/25 11:04:08;;;;;;;37.93;15.33;;;;;;;1.45;100.00;99770.63;5029385;28;20029;-70
2021/01/25 11:06:33;;;;;;;39.60;15.43;;;;;;;1.38;100.00;99763.63;5029853;28;20055;-69